Time;durP1;ratioP1;P1;durP2;ratioP2;P2;SDS_P1;SDS_P2;PMS_P1;PMS_P2;Temp;Humidity;BMP_temperature;BMP_pressure;BME280_temperature;BME280_humidity;BME280_pressure;Samples;Min_cycle;Max_cycle;Signal;HPM_P1;HPM_P2
2022/06/24 00:00:39;;;;;;;15.30;8.23;;;;;;;20.88;89.42;100552.25;5091295;28;20275;-79
2022/06/24 00:03:05;;;;;;;16.30;8.45;;;;;;;20.74;89.99;100555.75;5083699;28;20102;-79
2022/06/24 00:05:33;;;;;;;22.13;9.60;;;;;;;20.68;92.36;100577.88;5098064;28;20380;-78
2022/06/24 00:07:59;;;;;;;15.82;9.73;;;;;;;20.53;93.77;100602.78;5090565;28;20113;-78
2022/06/24 00:10:31;;;;;;;19.75;11.20;;;;;;;20.48;95.76;100636.44;5087938;28;20563;-78
2022/06/24 00:12:57;;;;;;;17.55;11.65;;;;;;;20.44;95.54;100651.19;5090588;28;20101;-79
2022/06/24 00:15:34;;;;;;;20.60;14.18;;;;;;;20.38;95.75;100647.34;5091440;28;20463;-80
2022/06/24 00:18:20;;;;;;;20.38;17.05;;;;;;;20.43;95.03;100628.16;5090997;28;20047;-81
2022/06/24 00:20:53;;;;;;;28.95;21.77;;;;;;;20.33;97.90;100644.38;5090446;28;20024;-82
2022/06/24 00:23:25;;;;;;;27.00;24.15;;;;;;;20.28;98.18;100652.94;5097121;28;20023;-81
2022/06/24 00:25:50;;;;;;;27.40;24.50;;;;;;;20.26;98.36;100667.50;5089475;28;20032;-82
2022/06/24 00:28:31;;;;;;;26.77;22.45;;;;;;;20.19;98.28;100699.47;5085410;28;20020;-80
2022/06/24 00:30:57;;;;;;;23.63;20.67;;;;;;;20.03;97.91;100695.09;5089571;28;20047;-80
2022/06/24 00:33:24;;;;;;;25.42;21.65;;;;;;;20.06;99.86;100691.22;5090738;28;20456;-82
2022/06/24 00:35:53;;;;;;;18.27;16.33;;;;;;;19.95;97.55;100695.13;5090685;28;20024;-82
2022/06/24 00:38:22;;;;;;;16.25;14.15;;;;;;;19.85;97.48;100713.22;5089198;28;20028;-82
2022/06/24 00:40:52;;;;;;;16.08;12.65;;;;;;;19.79;96.76;100726.47;5090365;28;20032;-82
2022/06/24 00:43:25;;;;;;;12.70;10.40;;;;;;;19.59;97.87;100736.72;5089404;28;20027;-82
2022/06/24 00:46:05;;;;;;;14.10;10.35;;;;;;;19.52;96.95;100725.91;5088466;28;20027;-82
2022/06/24 00:48:35;;;;;;;18.90;10.80;;;;;;;19.46;97.62;100720.44;5083996;28;20412;-82
2022/06/24 00:51:01;;;;;;;14.10;9.35;;;;;;;19.40;97.52;100705.94;5089316;28;20039;-81
2022/06/24 00:53:27;;;;;;;11.55;7.88;;;;;;;19.40;97.82;100712.13;5089761;28;20441;-81
2022/06/24 00:55:53;;;;;;;10.15;6.80;;;;;;;19.18;96.33;100707.53;5089914;28;20042;-81
2022/06/24 00:58:19;;;;;;;8.30;5.60;;;;;;;19.14;95.77;100710.72;5089940;28;20043;-81
2022/06/24 01:00:47;;;;;;;8.60;5.15;;;;;;;18.96;95.63;100702.94;5085944;28;20023;-81
2022/06/24 01:03:14;;;;;;;8.90;4.07;;;;;;;18.90;95.09;100684.97;5088266;28;20126;-82
2022/06/24 01:05:40;;;;;;;6.13;3.53;;;;;;;18.63;95.64;100692.34;5090923;28;20028;-82
2022/06/24 01:08:12;;;;;;;6.85;3.40;;;;;;;18.66;96.19;100686.69;5087747;28;20495;-81
2022/06/24 01:10:39;;;;;;;4.82;2.80;;;;;;;18.48;94.96;100675.38;5082777;28;20023;-81
2022/06/24 01:13:09;;;;;;;5.97;2.42;;;;;;;18.40;95.63;100664.69;5090467;28;20651;-81
2022/06/24 01:15:35;;;;;;;4.30;2.50;;;;;;;18.44;95.92;100661.56;5081396;28;20040;-81
2022/06/24 01:18:02;;;;;;;4.38;2.22;;;;;;;18.34;96.14;100646.72;5089920;28;20016;-81
2022/06/24 01:20:27;;;;;;;4.25;2.20;;;;;;;18.34;96.92;100642.25;5083483;28;20043;-82
2022/06/24 01:22:53;;;;;;;2.83;1.80;;;;;;;18.24;95.78;100641.59;5088949;28;20035;-83
2022/06/24 01:25:19;;;;;;;6.18;2.30;;;;;;;18.22;95.88;100640.94;5105781;28;20501;-82
2022/06/24 01:27:45;;;;;;;2.95;1.70;;;;;;;18.09;95.36;100641.44;5089671;28;20028;-83
2022/06/24 01:30:11;;;;;;;4.68;1.67;;;;;;;18.06;96.13;100644.44;5090632;28;20063;-84
2022/06/24 01:32:36;;;;;;;3.38;1.70;;;;;;;18.07;96.13;100638.13;5090291;28;20107;-83
2022/06/24 01:35:03;;;;;;;2.35;1.55;;;;;;;17.99;95.99;100635.44;5089928;28;20448;-83
2022/06/24 01:37:29;;;;;;;3.33;1.60;;;;;;;18.06;96.06;100638.28;5084769;28;20107;-83
2022/06/24 01:39:55;;;;;;;27.45;1.80;;;;;;;17.94;95.98;100637.78;5090529;28;20095;-83
2022/06/24 01:42:20;;;;;;;2.40;1.17;;;;;;;17.81;96.66;100642.75;5089998;28;20495;-83
2022/06/24 01:44:45;;;;;;;2.65;1.58;;;;;;;17.89;96.10;100645.44;5090615;28;20420;-83
2022/06/24 01:47:11;;;;;;;4.70;1.40;;;;;;;17.84;96.97;100631.78;5090493;28;20023;-83
2022/06/24 01:49:37;;;;;;;2.35;1.52;;;;;;;17.88;97.28;100617.16;5087014;28;20049;-83
2022/06/24 01:52:03;;;;;;;2.45;1.55;;;;;;;17.86;96.49;100611.16;5089884;28;20028;-83
2022/06/24 01:54:31;;;;;;;2.90;1.40;;;;;;;17.88;96.20;100611.81;5084569;28;20028;-84
2022/06/24 01:56:57;;;;;;;3.40;1.65;;;;;;;17.76;96.72;100608.66;5089107;28;20334;-79
2022/06/24 01:59:22;;;;;;;2.75;1.48;;;;;;;17.82;95.87;100609.81;5089857;28;20060;-84
2022/06/24 02:01:52;;;;;;;6.72;1.52;;;;;;;17.76;96.52;100607.84;5084794;28;20245;-84
2022/06/24 02:04:17;;;;;;;3.22;1.60;;;;;;;17.69;96.10;100598.84;5092125;28;20034;-81
2022/06/24 02:06:43;;;;;;;4.57;1.52;;;;;;;17.69;96.63;100591.69;5088851;28;20020;-84
2022/06/24 02:09:09;;;;;;;3.67;1.38;;;;;;;17.69;96.90;100588.22;5089803;28;20144;-84
2022/06/24 02:14:30;;;;;;;4.47;1.75;;;;;;;17.69;97.53;100612.16;5088442;28;20055;-84
2022/06/24 02:16:56;;;;;;;5.85;1.73;;;;;;;17.74;98.72;100612.50;5089310;28;20032;-84
2022/06/24 02:19:24;;;;;;;4.15;1.83;;;;;;;17.70;98.87;100608.50;5090367;28;20356;-83
2022/06/24 02:21:50;;;;;;;2.63;1.90;;;;;;;17.51;98.02;100605.09;5089613;28;20031;-84
2022/06/24 02:24:15;;;;;;;2.92;1.90;;;;;;;17.61;98.95;100602.31;5089460;28;20020;-84
2022/06/24 02:26:43;;;;;;;2.47;2.20;;;;;;;17.61;100.00;100606.78;5088317;28;20475;-85
2022/06/24 02:29:10;;;;;;;4.25;2.38;;;;;;;17.57;99.59;100605.44;5085191;28;20485;-83
2022/06/24 02:31:35;;;;;;;3.03;2.15;;;;;;;17.49;99.49;100591.13;5087269;28;20020;-83
2022/06/24 02:34:01;;;;;;;3.35;2.40;;;;;;;17.55;100.00;100585.16;5090044;28;20368;-83
2022/06/24 02:36:26;;;;;;;4.05;2.28;;;;;;;17.57;100.00;100592.13;5089633;28;20020;-81
2022/06/24 02:38:52;;;;;;;3.50;2.20;;;;;;;17.52;99.89;100585.47;5088075;28;20019;-82
2022/06/24 02:41:18;;;;;;;4.35;2.35;;;;;;;17.44;100.00;100566.88;5089194;28;20495;-82
2022/06/24 02:43:44;;;;;;;3.38;2.67;;;;;;;17.48;100.00;100575.34;5087616;28;20019;-82
2022/06/24 02:46:12;;;;;;;4.18;2.60;;;;;;;17.41;100.00;100571.69;5087018;28;20024;-82
2022/06/24 02:48:39;;;;;;;4.05;2.50;;;;;;;17.31;100.00;100577.16;5090721;28;20023;-82
2022/06/24 02:51:07;;;;;;;4.40;2.42;;;;;;;17.39;100.00;100579.81;5092984;28;20024;-83
2022/06/24 02:53:35;;;;;;;4.18;2.50;;;;;;;17.42;100.00;100571.50;5091194;28;20026;-82
2022/06/24 02:56:01;;;;;;;7.45;2.60;;;;;;;17.42;100.00;100563.53;5092107;28;20032;-83
2022/06/24 02:58:27;;;;;;;2.92;2.60;;;;;;;17.40;100.00;100549.56;5092435;28;20020;-83
2022/06/24 03:00:56;;;;;;;4.30;3.10;;;;;;;17.37;100.00;100555.22;5089054;28;20035;-83
2022/06/24 03:03:22;;;;;;;3.28;2.50;;;;;;;17.32;100.00;100546.91;5087419;28;20030;-83
2022/06/24 03:05:51;;;;;;;6.00;2.67;;;;;;;17.34;100.00;100550.22;5098489;28;20024;-83
2022/06/24 03:08:19;;;;;;;6.00;2.90;;;;;;;17.35;100.00;100551.91;5090903;28;20034;-84
2022/06/24 03:10:45;;;;;;;3.80;3.00;;;;;;;17.27;100.00;100541.25;5091932;28;20024;-84
2022/06/24 03:13:11;;;;;;;4.88;3.10;;;;;;;17.24;100.00;100544.25;5091915;28;20024;-84
2022/06/24 03:15:37;;;;;;;4.53;3.50;;;;;;;17.23;100.00;100548.72;5091503;28;20407;-84
2022/06/24 03:18:02;;;;;;;3.63;3.33;;;;;;;17.25;100.00;100537.94;5101835;28;20055;-80
2022/06/24 03:20:31;;;;;;;3.85;3.45;;;;;;;17.30;100.00;100532.94;5091596;28;20062;-79
2022/06/24 03:22:57;;;;;;;4.22;3.80;;;;;;;17.27;100.00;100541.25;5096971;28;20023;-79
2022/06/24 03:25:23;;;;;;;4.40;3.85;;;;;;;17.26;100.00;100536.94;5092994;28;20456;-80
2022/06/24 03:27:49;;;;;;;4.38;3.92;;;;;;;17.31;100.00;100539.94;5091743;28;20062;-84
2022/06/24 03:30:15;;;;;;;4.95;3.95;;;;;;;17.21;100.00;100537.44;5092899;28;20052;-80
2022/06/24 03:32:41;;;;;;;5.18;4.00;;;;;;;17.32;100.00;100536.28;5090920;28;20555;-85
2022/06/24 03:35:08;;;;;;;4.25;3.85;;;;;;;17.29;100.00;100541.91;5089921;28;20032;-81
2022/06/24 03:37:34;;;;;;;6.30;4.72;;;;;;;17.27;100.00;100535.09;5090445;28;20031;-84
2022/06/24 03:40:00;;;;;;;5.82;4.70;;;;;;;17.31;100.00;100529.28;5092755;28;20034;-85
2022/06/24 03:42:26;;;;;;;4.82;4.35;;;;;;;17.37;100.00;100512.66;5091078;28;20448;-85
2022/06/24 03:44:52;;;;;;;7.40;4.68;;;;;;;17.41;100.00;100518.47;5091742;28;20032;-79
2022/06/24 03:47:18;;;;;;;5.30;4.80;;;;;;;17.42;100.00;100520.16;5092537;28;20073;-85
2022/06/24 03:49:43;;;;;;;5.88;5.18;;;;;;;17.43;100.00;100513.81;5090948;28;20030;-85
2022/06/24 03:52:09;;;;;;;5.70;4.97;;;;;;;17.44;100.00;100526.97;5092055;28;20078;-85
2022/06/24 03:54:35;;;;;;;6.15;4.78;;;;;;;17.50;100.00;100539.59;5092037;28;20032;-85
2022/06/24 03:57:00;;;;;;;8.82;5.95;;;;;;;17.47;100.00;100549.75;5091250;28;20396;-85
2022/06/24 03:59:26;;;;;;;10.48;5.80;;;;;;;17.48;100.00;100549.56;5091308;28;20020;-85
2022/06/24 04:01:52;;;;;;;7.53;6.28;;;;;;;17.49;100.00;100558.38;5088716;28;20032;-85
2022/06/24 04:04:23;;;;;;;7.32;5.88;;;;;;;17.47;100.00;100569.19;5091015;28;20055;-84
2022/06/24 04:06:48;;;;;;;7.68;6.28;;;;;;;17.42;100.00;100562.72;5088525;28;20433;-80
2022/06/24 04:09:14;;;;;;;9.10;6.20;;;;;;;17.40;100.00;100570.03;5084895;28;20053;-84
2022/06/24 04:11:39;;;;;;;8.75;6.53;;;;;;;17.44;100.00;100572.19;5090349;28;20035;-79
2022/06/24 04:14:05;;;;;;;8.30;6.45;;;;;;;17.34;100.00;100581.31;5090645;28;20046;-83
2022/06/24 04:16:33;;;;;;;7.05;6.35;;;;;;;17.42;100.00;100584.81;5088404;28;20476;-84
2022/06/24 04:18:59;;;;;;;7.28;6.50;;;;;;;17.45;100.00;100581.00;5091218;28;20027;-83
2022/06/24 04:21:24;;;;;;;7.65;6.32;;;;;;;17.38;100.00;100578.16;5092670;28;20038;-79
2022/06/24 04:23:50;;;;;;;7.30;6.60;;;;;;;17.46;100.00;100586.16;5092634;28;20106;-83
2022/06/24 04:26:17;;;;;;;8.40;6.97;;;;;;;17.46;100.00;100591.47;5090918;28;20095;-79
2022/06/24 04:28:43;;;;;;;8.88;7.20;;;;;;;17.51;100.00;100591.81;5089167;28;20484;-79
2022/06/24 04:31:09;;;;;;;9.77;7.35;;;;;;;17.50;100.00;100586.66;5090492;28;20048;-84
2022/06/24 04:33:35;;;;;;;8.95;8.13;;;;;;;17.50;100.00;100582.16;5090562;28;20410;-84
2022/06/24 04:36:00;;;;;;;9.63;7.63;;;;;;;17.51;100.00;100585.66;5091028;28;20027;-84
2022/06/24 04:38:26;;;;;;;10.27;7.63;;;;;;;17.57;100.00;100584.16;5092715;28;20543;-84
2022/06/24 04:40:52;;;;;;;11.52;8.40;;;;;;;17.61;100.00;100577.50;5086899;28;20024;-84
2022/06/24 04:43:19;;;;;;;10.30;9.05;;;;;;;17.61;100.00;100572.19;5088864;28;20051;-84
2022/06/24 04:45:45;;;;;;;11.90;8.07;;;;;;;17.64;100.00;100571.88;5090037;28;20069;-84
2022/06/24 04:48:14;;;;;;;17.13;8.45;;;;;;;17.66;100.00;100576.03;5090755;28;20016;-84
2022/06/24 04:50:40;;;;;;;13.05;9.00;;;;;;;17.67;100.00;100567.09;5088535;28;20111;-85
2022/06/24 04:53:06;;;;;;;10.27;9.18;;;;;;;17.64;100.00;100563.91;5089739;28;20027;-85
2022/06/24 04:55:31;;;;;;;11.93;8.75;;;;;;;17.71;100.00;100562.25;5089447;28;20069;-84
2022/06/24 04:57:57;;;;;;;10.38;9.43;;;;;;;17.72;100.00;100556.78;5083475;28;20043;-84
2022/06/24 05:00:27;;;;;;;11.90;9.57;;;;;;;17.72;100.00;100569.25;5088301;28;20491;-84
2022/06/24 05:02:52;;;;;;;11.20;10.00;;;;;;;17.82;100.00;100567.25;5088431;28;20527;-84
2022/06/24 05:05:19;;;;;;;13.07;10.43;;;;;;;17.82;100.00;100577.88;5092446;28;20027;-84
2022/06/24 05:07:44;;;;;;;13.85;10.77;;;;;;;17.75;100.00;100574.22;5088609;28;20541;-84
2022/06/24 05:10:10;;;;;;;12.35;11.15;;;;;;;17.69;100.00;100580.22;5089733;28;20023;-84
2022/06/24 05:12:35;;;;;;;13.30;11.77;;;;;;;17.68;100.00;100578.56;5089170;28;20703;-85
2022/06/24 05:15:02;;;;;;;13.90;12.52;;;;;;;17.63;100.00;100576.38;5091153;28;20052;-85
2022/06/24 05:20:13;;;;;;;14.65;13.15;;;;;;;17.59;100.00;100572.34;5082511;28;20059;-86
2022/06/24 05:22:38;;;;;;;14.70;13.00;;;;;;;17.59;100.00;100574.19;5090990;28;20055;-85
2022/06/24 05:25:06;;;;;;;14.98;13.57;;;;;;;17.57;100.00;100573.50;5094093;28;20024;-85
2022/06/24 05:27:32;;;;;;;14.82;13.43;;;;;;;17.60;100.00;100575.84;5093189;28;20418;-86
2022/06/24 05:29:57;;;;;;;15.57;13.43;;;;;;;17.64;100.00;100587.84;5093994;28;20157;-85
2022/06/24 05:32:24;;;;;;;15.65;13.43;;;;;;;17.65;100.00;100584.19;5093663;28;20416;-85
2022/06/24 05:34:56;;;;;;;14.15;12.60;;;;;;;17.69;100.00;100580.22;5092680;28;20051;-85
2022/06/24 05:37:22;;;;;;;14.32;12.85;;;;;;;17.73;100.00;100581.56;5096304;28;20019;-84
2022/06/24 05:39:50;;;;;;;14.18;12.45;;;;;;;17.74;100.00;100586.72;5091218;28;20032;-85
2022/06/24 05:42:18;;;;;;;14.38;13.00;;;;;;;17.71;100.00;100587.03;5093278;28;20425;-84
2022/06/24 05:44:50;;;;;;;16.40;13.88;;;;;;;17.74;100.00;100592.03;5089003;28;20020;-85
2022/06/24 05:47:15;;;;;;;16.10;14.50;;;;;;;17.74;100.00;100586.72;5096490;28;20115;-86
2022/06/24 05:49:41;;;;;;;19.25;14.57;;;;;;;17.82;100.00;100591.19;5090389;28;20103;-86
2022/06/24 05:52:09;;;;;;;17.30;15.23;;;;;;;17.76;100.00;100583.88;5094522;28;20434;-80
2022/06/24 05:57:18;;;;;;;19.90;16.95;;;;;;;17.76;100.00;100571.41;5091314;28;20541;-79
2022/06/24 05:59:44;;;;;;;23.80;18.85;;;;;;;17.82;100.00;100573.41;5081218;28;20033;-79
2022/06/24 06:02:10;;;;;;;23.33;18.88;;;;;;;17.93;100.00;100576.72;5087289;28;20498;-81
2022/06/24 06:04:38;;;;;;;21.08;18.77;;;;;;;17.95;100.00;100580.03;5070898;28;20028;-82
2022/06/24 06:07:04;;;;;;;24.48;19.33;;;;;;;17.99;100.00;100574.19;5076913;28;20019;-83
2022/06/24 06:09:29;;;;;;;26.25;21.15;;;;;;;17.98;100.00;100577.88;5087817;28;20396;-79
2022/06/24 06:11:57;;;;;;;32.20;22.88;;;;;;;18.00;100.00;100580.34;5086514;28;20119;-83
2022/06/24 06:14:22;;;;;;;33.72;24.80;;;;;;;18.05;100.00;100583.38;5083494;28;20044;-83
2022/06/24 06:16:47;;;;;;;36.15;26.75;;;;;;;18.07;100.00;100584.88;5086509;28;20883;-79
2022/06/24 06:19:13;;;;;;;38.28;27.00;;;;;;;18.08;100.00;100586.53;5086263;28;20028;-83
2022/06/24 06:21:39;;;;;;;40.58;27.17;;;;;;;18.14;100.00;100585.84;5086768;28;20372;-82
2022/06/24 06:24:05;;;;;;;36.63;26.67;;;;;;;18.16;100.00;100583.84;5085322;28;20028;-82
2022/06/24 06:26:31;;;;;;;34.03;26.63;;;;;;;18.19;100.00;100579.19;5087467;28;20070;-82
2022/06/24 06:29:01;;;;;;;35.70;27.23;;;;;;;18.14;100.00;100585.84;5089387;28;20016;-83
2022/06/24 06:31:27;;;;;;;39.50;25.10;;;;;;;18.17;100.00;100580.19;5087949;28;20518;-81
2022/06/24 06:33:52;;;;;;;32.83;25.90;;;;;;;18.26;100.00;100577.50;5087312;28;20032;-80
2022/06/24 06:36:18;;;;;;;33.38;26.77;;;;;;;18.23;100.00;100575.19;5088546;28;20472;-82
2022/06/24 06:38:43;;;;;;;35.35;26.50;;;;;;;18.27;100.00;100587.16;5086030;28;20028;-81
2022/06/24 06:41:11;;;;;;;32.90;25.83;;;;;;;18.31;100.00;100585.81;5089831;28;20045;-81
2022/06/24 06:43:36;;;;;;;27.55;24.55;;;;;;;18.32;100.00;100582.16;5088726;28;20035;-82
2022/06/24 06:46:02;;;;;;;28.92;25.17;;;;;;;18.38;100.00;100582.28;5088924;28;20019;-81
2022/06/24 06:48:27;;;;;;;28.38;25.58;;;;;;;18.37;100.00;100577.97;5088489;28;20039;-81
2022/06/24 06:50:55;;;;;;;28.08;25.13;;;;;;;18.36;100.00;100572.81;5090537;28;20569;-81
2022/06/24 06:53:21;;;;;;;28.95;26.05;;;;;;;18.38;100.00;100576.13;5088802;28;20020;-82
2022/06/24 06:55:46;;;;;;;28.90;25.75;;;;;;;18.38;100.00;100574.28;5087503;28;20085;-80
2022/06/24 06:58:12;;;;;;;28.27;25.30;;;;;;;18.39;100.00;100575.13;5088976;28;20479;-81
2022/06/24 07:00:37;;;;;;;27.60;24.83;;;;;;;18.40;100.00;100568.78;5088441;28;20024;-80
2022/06/24 07:03:03;;;;;;;26.42;23.80;;;;;;;18.44;100.00;100568.31;5080680;28;20031;-79
2022/06/24 07:05:31;;;;;;;26.42;23.63;;;;;;;18.43;100.00;100568.50;5078351;28;20021;-80
2022/06/24 07:07:57;;;;;;;27.92;24.85;;;;;;;18.51;100.00;100571.13;5077428;28;20170;-82
2022/06/24 07:10:22;;;;;;;29.38;26.27;;;;;;;18.49;100.00;100573.13;5088581;28;20106;-80
2022/06/24 07:12:47;;;;;;;27.40;24.58;;;;;;;18.51;100.00;100576.44;5084919;28;20484;-79
2022/06/24 07:15:16;;;;;;;27.25;24.48;;;;;;;18.48;100.00;100569.63;5088877;28;20036;-80
2022/06/24 07:17:41;;;;;;;28.63;25.90;;;;;;;18.50;100.00;100561.47;5086748;28;20032;-80
2022/06/24 07:20:07;;;;;;;28.38;25.42;;;;;;;18.54;100.00;100561.94;5086677;28;20030;-80
2022/06/24 07:22:34;;;;;;;33.58;28.30;;;;;;;18.56;100.00;100555.44;5086302;28;20506;-82
2022/06/24 07:24:59;;;;;;;29.17;26.23;;;;;;;18.62;100.00;100557.44;5073034;28;20031;-80
2022/06/24 07:27:25;;;;;;;30.38;27.13;;;;;;;18.65;100.00;100551.78;5073155;28;20029;-81
2022/06/24 07:29:51;;;;;;;30.05;26.98;;;;;;;18.76;100.00;100553.22;5069988;28;20056;-81
2022/06/24 07:32:16;;;;;;;29.90;26.73;;;;;;;18.78;100.00;100560.03;5067645;28;20692;-80
2022/06/24 07:34:42;;;;;;;27.70;24.95;;;;;;;18.82;100.00;100562.38;5067870;28;20383;-83
2022/06/24 07:37:10;;;;;;;32.53;29.23;;;;;;;18.87;100.00;100570.69;5078675;28;20028;-81
2022/06/24 07:39:35;;;;;;;36.25;32.33;;;;;;;18.85;100.00;100572.69;5076471;28;20044;-81
2022/06/24 07:42:01;;;;;;;37.08;33.38;;;;;;;18.87;100.00;100581.34;5073441;28;20036;-81
2022/06/24 07:44:26;;;;;;;42.17;37.58;;;;;;;18.83;100.00;100585.38;5078438;28;20035;-84
2022/06/24 07:46:52;;;;;;;48.58;42.45;;;;;;;18.84;100.00;100595.84;5071457;28;20021;-86
2022/06/24 07:49:18;;;;;;;51.13;45.72;;;;;;;18.82;100.00;100599.69;5070830;28;20107;-85
2022/06/24 07:51:44;;;;;;;56.28;46.83;;;;;;;18.74;100.00;100598.69;5070126;28;20028;-85
2022/06/24 07:54:09;;;;;;;57.22;50.47;;;;;;;18.70;100.00;100596.56;5073074;28;20028;-85
2022/06/24 07:59:21;;;;;;;60.05;50.50;;;;;;;18.67;100.00;100602.22;5073221;28;20101;-85
2022/06/24 08:01:46;;;;;;;53.13;47.33;;;;;;;18.66;100.00;100598.72;5072243;28;20032;-85
2022/06/24 08:04:16;;;;;;;53.10;47.17;;;;;;;18.72;100.00;100603.38;5072767;28;20437;-78
2022/06/24 08:06:46;;;;;;;50.42;45.08;;;;;;;18.81;100.00;100598.00;5070156;28;20025;-84
2022/06/24 08:09:14;;;;;;;46.75;42.05;;;;;;;18.90;100.00;100597.00;5069994;28;20020;-85
2022/06/24 08:11:40;;;;;;;41.95;37.85;;;;;;;19.02;100.00;100598.25;5069711;28;20037;-85
2022/06/24 08:14:06;;;;;;;40.33;36.33;;;;;;;19.16;100.00;100597.50;5070864;28;20447;-85
2022/06/24 08:16:34;;;;;;;40.38;36.35;;;;;;;19.27;100.00;100599.81;5070554;28;20034;-85
2022/06/24 08:19:00;;;;;;;32.03;28.88;;;;;;;19.38;100.00;100595.88;5069799;28;20052;-85
2022/06/24 08:21:25;;;;;;;27.65;24.75;;;;;;;19.52;100.00;100597.78;5072828;28;20083;-85
2022/06/24 08:23:51;;;;;;;26.65;24.05;;;;;;;19.69;100.00;100587.88;5071514;28;20025;-85
2022/06/24 08:26:16;;;;;;;23.73;21.35;;;;;;;19.85;100.00;100586.91;5069105;28;20023;-85
2022/06/24 08:28:43;;;;;;;24.65;22.25;;;;;;;19.99;100.00;100581.56;5069895;28;20063;-85
2022/06/24 08:31:09;;;;;;;23.63;21.35;;;;;;;20.22;100.00;100580.72;5070393;28;20060;-78
2022/06/24 08:33:34;;;;;;;22.05;19.70;;;;;;;20.60;100.00;100582.31;5069934;28;20063;-78
2022/06/24 08:36:00;;;;;;;21.30;19.30;;;;;;;20.69;98.47;100575.03;5068934;28;20024;-79
2022/06/24 08:38:25;;;;;;;20.75;18.77;;;;;;;20.80;94.65;100581.75;5069995;28;20035;-79
2022/06/24 08:40:54;;;;;;;20.70;18.67;;;;;;;20.74;92.45;100577.97;5069855;28;20028;-79
2022/06/24 08:43:23;;;;;;;19.13;17.33;;;;;;;20.79;93.89;100585.44;5070430;28;20098;-79
2022/06/24 08:45:49;;;;;;;23.30;21.05;;;;;;;20.71;92.33;100588.22;5067478;28;20444;-79
2022/06/24 08:48:15;;;;;;;26.40;23.80;;;;;;;20.77;93.45;100582.13;5070871;28;20034;-84
2022/06/24 08:50:41;;;;;;;27.98;25.48;;;;;;;20.85;93.30;100592.75;5069727;28;20046;-84
2022/06/24 08:53:09;;;;;;;29.95;27.08;;;;;;;20.91;94.81;100579.44;5063793;28;20529;-85
2022/06/24 08:55:39;;;;;;;32.53;29.42;;;;;;;21.12;94.05;100584.00;5070446;28;20122;-85
2022/06/24 08:58:13;;;;;;;32.53;29.63;;;;;;;21.17;93.89;100578.91;5070212;28;20048;-79
2022/06/24 09:00:39;;;;;;;25.15;22.73;;;;;;;21.30;90.79;100577.44;5062852;28;20537;-79
2022/06/24 09:03:06;;;;;;;21.70;19.77;;;;;;;21.31;89.43;100581.78;5070892;28;20108;-85
2022/06/24 09:05:32;;;;;;;23.00;20.80;;;;;;;21.25;90.61;100576.16;5072060;28;20024;-85
2022/06/24 09:08:11;;;;;;;29.90;27.20;;;;;;;21.18;88.96;100585.91;5070821;28;20024;-85
2022/06/24 09:10:38;;;;;;;33.78;30.75;;;;;;;21.06;90.15;100586.59;5066013;28;20024;-85
2022/06/24 09:13:07;;;;;;;30.70;28.10;;;;;;;21.07;89.92;100590.94;5068969;28;20048;-83
2022/06/24 09:15:33;;;;;;;31.70;28.90;;;;;;;21.12;90.70;100583.16;5067974;28;20040;-84
2022/06/24 09:18:00;;;;;;;32.28;29.48;;;;;;;21.52;91.53;100577.25;5069439;28;20403;-84
2022/06/24 09:20:32;;;;;;;30.10;27.52;;;;;;;21.86;88.42;100579.22;5069510;28;20431;-85
2022/06/24 09:23:05;;;;;;;31.80;28.73;;;;;;;21.86;87.97;100583.72;5071226;28;20107;-84
2022/06/24 09:25:46;;;;;;;23.23;20.98;;;;;;;22.17;86.39;100578.03;5067772;28;20032;-84
2022/06/24 09:28:25;;;;;;;16.90;15.20;;;;;;;22.45;83.05;100569.97;5065457;28;20555;-84
2022/06/24 09:31:00;;;;;;;17.83;16.08;;;;;;;22.40;82.08;100573.22;5061132;28;20104;-84
2022/06/24 09:33:26;;;;;;;18.27;16.50;;;;;;;22.56;80.99;100565.91;5069084;28;20036;-84
2022/06/24 09:36:05;;;;;;;16.77;15.27;;;;;;;22.52;80.30;100571.66;5068382;28;20508;-84
2022/06/24 09:38:31;;;;;;;16.42;14.93;;;;;;;22.65;80.91;100572.75;5075305;28;20029;-84
2022/06/24 09:41:04;;;;;;;14.27;12.75;;;;;;;22.78;79.50;100570.94;5057918;28;20027;-84
2022/06/24 09:43:33;;;;;;;12.80;11.48;;;;;;;23.20;80.52;100565.53;5054690;28;20033;-84
2022/06/24 09:46:00;;;;;;;13.40;12.10;;;;;;;23.45;77.83;100564.78;5051300;28;20100;-84
2022/06/24 09:48:38;;;;;;;12.88;11.52;;;;;;;23.75;79.23;100567.13;5055890;28;20476;-83
2022/06/24 09:51:06;;;;;;;11.15;10.15;;;;;;;23.59;73.94;100564.81;5069107;28;20028;-79
2022/06/24 09:53:35;;;;;;;10.20;9.10;;;;;;;23.33;71.21;100570.97;5068337;28;20087;-84
2022/06/24 09:56:02;;;;;;;11.55;10.40;;;;;;;22.91;74.36;100566.72;5069008;28;20115;-80
2022/06/24 09:58:31;;;;;;;10.32;9.38;;;;;;;22.73;76.31;100575.25;5068963;28;20028;-84
2022/06/24 10:00:57;;;;;;;12.45;9.52;;;;;;;22.41;76.51;100576.72;5068068;28;20480;-84
2022/06/24 10:03:23;;;;;;;12.43;10.13;;;;;;;22.31;76.69;100571.72;5069800;28;20059;-84
2022/06/24 10:05:50;;;;;;;10.40;9.40;;;;;;;22.32;77.81;100578.75;5070023;28;20058;-84
2022/06/24 10:08:18;;;;;;;10.20;9.20;;;;;;;22.40;77.99;100581.25;5070309;28;20035;-83
2022/06/24 10:10:48;;;;;;;10.80;9.80;;;;;;;22.62;79.69;100567.78;5068502;28;20020;-84
2022/06/24 10:13:32;;;;;;;12.80;11.70;;;;;;;22.69;80.83;100566.78;5070580;28;20028;-83
2022/06/24 10:16:01;;;;;;;12.90;11.70;;;;;;;22.75;78.24;100573.19;5064051;28;20048;-80
2022/06/24 10:18:40;;;;;;;15.65;12.05;;;;;;;22.80;78.47;100582.34;5068155;28;20131;-84
2022/06/24 10:21:08;;;;;;;13.95;12.57;;;;;;;22.62;79.58;100586.56;5068241;28;20388;-84
2022/06/24 10:23:49;;;;;;;8.80;5.60;;;;;;;22.04;76.48;100621.66;5066405;28;20032;-84
2022/06/24 10:26:28;;;;;;;9.02;4.07;;;;;;;21.00;79.87;100630.16;5066398;28;20020;-85
2022/06/24 10:29:05;;;;;;;8.73;3.00;;;;;;;20.00;82.53;100643.84;5066548;28;20077;-83
2022/06/24 10:31:49;;;;;;;4.50;2.00;;;;;;;19.49;84.32;100624.84;5068207;28;20029;-84
2022/06/24 10:34:28;;;;;;;6.05;2.10;;;;;;;19.18;87.25;100627.50;5064450;28;20398;-79
2022/06/24 10:37:13;;;;;;;6.38;2.30;;;;;;;18.94;87.48;100622.31;5051188;28;20156;-79
2022/06/24 10:39:48;;;;;;;7.68;2.60;;;;;;;18.81;89.83;100625.50;5051788;28;20032;-79
2022/06/24 10:42:20;;;;;;;4.32;2.83;;;;;;;18.72;93.07;100627.38;5053952;28;20135;-80
2022/06/24 10:44:56;;;;;;;3.87;2.90;;;;;;;18.79;93.11;100624.84;5053200;28;20112;-80
2022/06/24 10:47:24;;;;;;;7.03;3.65;;;;;;;18.65;95.01;100626.38;5054284;28;20365;-80
2022/06/24 10:49:54;;;;;;;4.47;3.55;;;;;;;18.61;96.25;100630.38;5059975;28;20037;-78
2022/06/24 10:52:48;;;;;;;7.72;4.43;;;;;;;18.60;95.14;100627.88;5054489;28;20037;-83
2022/06/24 10:55:28;;;;;;;9.05;4.00;;;;;;;18.61;95.81;100633.03;5058173;28;20043;-84
2022/06/24 10:58:07;;;;;;;4.72;3.47;;;;;;;18.58;96.05;100625.38;5057085;28;20051;-84
2022/06/24 11:00:59;;;;;;;5.30;3.15;;;;;;;18.50;94.98;100622.75;5061742;28;20699;-84
2022/06/24 11:03:33;;;;;;;4.38;2.80;;;;;;;18.59;96.24;100621.72;5065738;28;20047;-85
2022/06/24 11:05:59;;;;;;;3.97;2.88;;;;;;;18.57;96.37;100612.22;5063271;28;20507;-77
2022/06/24 11:08:26;;;;;;;3.22;2.80;;;;;;;18.57;96.97;100612.22;5065413;28;20060;-77
2022/06/24 11:10:52;;;;;;;4.95;3.60;;;;;;;18.62;99.44;100615.25;5061939;28;20020;-83
2022/06/24 11:13:21;;;;;;;4.10;3.80;;;;;;;18.66;99.89;100609.41;5067159;28;20024;-81
2022/06/24 11:15:55;;;;;;;5.40;3.80;;;;;;;18.68;98.75;100596.72;5063943;28;20504;-82
2022/06/24 11:18:34;;;;;;;7.18;3.97;;;;;;;18.87;97.83;100602.69;5062898;28;20024;-83
2022/06/24 11:21:05;;;;;;;7.10;3.90;;;;;;;19.10;99.63;100598.22;5066313;28;20400;-83
2022/06/24 11:23:35;;;;;;;4.47;4.07;;;;;;;19.31;98.42;100592.28;5069173;28;20029;-77
2022/06/24 11:26:00;;;;;;;6.60;4.35;;;;;;;19.59;97.46;100595.25;5063504;28;20020;-83